Time;durP1;ratioP1;P1;durP2;ratioP2;P2;SDS_P1;SDS_P2;PMS_P1;PMS_P2;Temp;Humidity;BMP_temperature;BMP_pressure;BME280_temperature;BME280_humidity;BME280_pressure;Samples;Min_cycle;Max_cycle;Signal;HPM_P1;HPM_P2
2023/08/09 00:00:50;;;;;;;0.32;0.32;;;;;;;10.06;100.00;98290.28;5068030;28;20025;-61
2023/08/09 00:03:16;;;;;;;0.30;0.30;;;;;;;10.09;100.00;98295.34;5067325;28;20024;-60
2023/08/09 00:05:41;;;;;;;0.30;0.30;;;;;;;10.12;100.00;98291.75;5067753;28;20017;-60
2023/08/09 00:08:06;;;;;;;0.30;0.30;;;;;;;10.14;100.00;98297.75;5067743;28;20021;-60
2023/08/09 00:10:35;;;;;;;0.30;0.30;;;;;;;10.12;100.00;98296.97;5067497;28;20032;-59
2023/08/09 00:13:01;;;;;;;0.30;0.30;;;;;;;10.16;100.00;98291.56;5067439;28;20021;-60
2023/08/09 00:15:26;;;;;;;0.30;0.30;;;;;;;10.06;100.00;98284.25;5067363;28;20025;-59
2023/08/09 00:17:52;;;;;;;0.30;0.30;;;;;;;10.16;100.00;98288.97;5065837;28;20025;-59
2023/08/09 00:20:17;;;;;;;0.30;0.30;;;;;;;10.22;100.00;98295.69;5066821;28;20048;-60
2023/08/09 00:22:43;;;;;;;0.30;0.30;;;;;;;10.19;100.00;98302.75;5067251;28;20461;-61
2023/08/09 00:25:13;;;;;;;0.40;0.40;;;;;;;10.22;100.00;98292.25;5067531;28;20025;-61
2023/08/09 00:27:39;;;;;;;0.30;0.30;;;;;;;10.22;100.00;98295.69;5067293;28;20017;-61
2023/08/09 00:30:07;;;;;;;0.30;0.30;;;;;;;10.21;100.00;98300.94;5065926;28;20582;-60
2023/08/09 00:32:33;;;;;;;0.30;0.30;;;;;;;10.23;100.00;98289.59;5067266;28;20021;-59
2023/08/09 00:34:58;;;;;;;0.30;0.30;;;;;;;10.27;100.00;98293.72;5066959;28;20078;-60
2023/08/09 00:37:24;;;;;;;0.30;0.30;;;;;;;10.30;100.00;98297.97;5066913;28;20357;-59
2023/08/09 00:39:49;;;;;;;0.30;0.30;;;;;;;10.29;100.00;98294.50;5067027;28;20067;-60
2023/08/09 00:42:15;;;;;;;0.30;0.30;;;;;;;10.42;100.00;98312.16;5067051;28;20026;-59
2023/08/09 00:44:41;;;;;;;0.30;0.30;;;;;;;10.49;100.00;98310.19;5066784;28;20025;-59
2023/08/09 00:47:07;;;;;;;0.30;0.30;;;;;;;10.54;100.00;98303.06;5066510;28;20405;-59
2023/08/09 00:49:33;;;;;;;0.25;0.25;;;;;;;10.40;100.00;98288.03;5066635;28;20028;-60
2023/08/09 00:51:59;;;;;;;0.30;0.30;;;;;;;10.57;100.00;98315.06;5066786;28;20017;-60
2023/08/09 00:54:25;;;;;;;0.30;0.30;;;;;;;10.57;100.00;98312.47;5066678;28;20063;-60
2023/08/09 00:56:50;;;;;;;0.30;0.30;;;;;;;10.60;100.00;98313.19;5066666;28;20025;-61
2023/08/09 00:59:16;;;;;;;0.30;0.30;;;;;;;10.61;100.00;98317.44;5066443;28;20025;-60
2023/08/09 01:01:41;;;;;;;0.30;0.30;;;;;;;10.63;100.00;98309.59;5066207;28;20080;-61
2023/08/09 01:04:07;;;;;;;0.30;0.30;;;;;;;10.58;100.00;98299.41;5066356;28;20112;-61
2023/08/09 01:06:35;;;;;;;0.68;0.68;;;;;;;10.48;100.00;98324.06;5066588;28;20366;-60
2023/08/09 01:09:11;;;;;;;0.30;0.30;;;;;;;10.36;100.00;98305.47;5066114;28;20084;-61
2023/08/09 01:11:53;;;;;;;0.30;0.30;;;;;;;10.34;100.00;98327.19;5066147;28;20025;-61
2023/08/09 01:14:22;;;;;;;0.30;0.30;;;;;;;10.33;100.00;98325.50;5066266;28;20024;-59
2023/08/09 01:16:49;;;;;;;0.30;0.30;;;;;;;10.30;100.00;98331.69;5066283;28;20051;-60
2023/08/09 01:19:31;;;;;;;0.30;0.30;;;;;;;10.29;100.00;98327.38;5066028;28;20025;-59
2023/08/09 01:21:57;;;;;;;0.40;0.40;;;;;;;10.27;100.00;98322.25;5066260;28;20093;-60
2023/08/09 01:24:23;;;;;;;0.30;0.30;;;;;;;10.21;100.00;98312.13;5064677;28;20037;-60
2023/08/09 01:26:49;;;;;;;2.25;2.15;;;;;;;10.21;100.00;98314.72;5066321;28;20442;-62
2023/08/09 01:29:15;;;;;;;0.73;0.73;;;;;;;10.22;100.00;98326.81;5065990;28;20031;-60
2023/08/09 01:31:40;;;;;;;0.30;0.30;;;;;;;10.24;100.00;98332.75;5066114;28;20036;-61
2023/08/09 01:34:06;;;;;;;0.30;0.30;;;;;;;10.11;100.00;98311.66;5066133;28;20020;-61
2023/08/09 01:36:36;;;;;;;0.30;0.30;;;;;;;10.23;100.00;98333.66;5066107;28;20024;-60
2023/08/09 01:39:07;;;;;;;1.85;1.77;;;;;;;10.29;100.00;98351.56;5065640;28;20084;-61
2023/08/09 01:41:34;;;;;;;0.30;0.30;;;;;;;10.30;100.00;98344.66;5065910;28;20029;-61
2023/08/09 01:44:02;;;;;;;0.30;0.30;;;;;;;10.27;100.00;98343.00;5065770;28;20055;-60
2023/08/09 01:46:27;;;;;;;0.30;0.30;;;;;;;10.34;100.00;98348.78;5065732;28;20036;-60
2023/08/09 01:49:10;;;;;;;0.30;0.30;;;;;;;10.35;100.00;98353.06;5065484;28;20020;-59
2023/08/09 01:51:35;;;;;;;0.30;0.30;;;;;;;10.39;100.00;98349.44;5065853;28;20025;-61
2023/08/09 01:54:01;;;;;;;0.30;0.30;;;;;;;10.35;100.00;98347.88;5065822;28;20017;-60
2023/08/09 01:56:26;;;;;;;0.30;0.30;;;;;;;10.30;100.00;98357.63;5065553;28;20024;-60
2023/08/09 01:58:52;;;;;;;0.35;0.35;;;;;;;10.34;100.00;98366.94;5064832;28;20108;-60
2023/08/09 02:01:17;;;;;;;0.30;0.30;;;;;;;10.28;100.00;98356.81;5065726;28;20080;-62
2023/08/09 02:03:43;;;;;;;0.30;0.30;;;;;;;10.34;100.00;98368.69;5065255;28;20024;-62
2023/08/09 02:06:08;;;;;;;0.30;0.30;;;;;;;10.28;100.00;98375.81;5065586;28;20554;-61
2023/08/09 02:08:34;;;;;;;0.30;0.30;;;;;;;10.26;100.00;98372.44;5065287;28;20025;-60
2023/08/09 02:10:59;;;;;;;0.30;0.30;;;;;;;10.21;100.00;98358.81;5065360;28;20064;-61
2023/08/09 02:13:24;;;;;;;0.32;0.32;;;;;;;10.21;100.00;98370.94;5065428;28;20025;-60
2023/08/09 02:15:50;;;;;;;0.30;0.30;;;;;;;10.16;100.00;98371.97;5065254;28;20052;-60
2023/08/09 02:18:15;;;;;;;4.45;4.05;;;;;;;10.14;100.00;98360.78;5065062;28;20090;-61
2023/08/09 02:20:41;;;;;;;0.30;0.30;;;;;;;10.17;100.00;98373.63;5065484;28;20080;-61
2023/08/09 02:23:06;;;;;;;0.30;0.30;;;;;;;10.19;100.00;98371.00;5065247;28;20098;-62
2023/08/09 02:25:32;;;;;;;1.55;1.55;;;;;;;10.22;100.00;98375.22;5064981;28;20025;-60
2023/08/09 02:27:57;;;;;;;0.20;0.20;;;;;;;10.22;100.00;98375.22;5065153;28;20060;-61
2023/08/09 02:30:23;;;;;;;0.30;0.30;;;;;;;10.25;100.00;98380.28;5064975;28;20089;-61
2023/08/09 02:32:50;;;;;;;0.30;0.30;;;;;;;10.26;100.00;98387.16;5064917;28;20017;-62
2023/08/09 02:35:15;;;;;;;0.30;0.30;;;;;;;10.29;100.00;98382.69;5063593;28;20025;-62
2023/08/09 02:37:41;;;;;;;0.30;0.30;;;;;;;10.28;100.00;98386.19;5064991;28;20041;-62
2023/08/09 02:40:07;;;;;;;0.30;0.30;;;;;;;10.27;100.00;98383.66;5064977;28;20056;-60
2023/08/09 02:42:33;;;;;;;0.30;0.30;;;;;;;10.20;100.00;98371.84;5064858;28;20033;-60
2023/08/09 02:44:59;;;;;;;0.20;0.20;;;;;;;10.25;100.00;98383.72;5065050;28;20098;-59
2023/08/09 02:47:24;;;;;;;0.93;0.93;;;;;;;10.28;100.00;98391.38;5064861;28;20033;-59
2023/08/09 02:49:50;;;;;;;0.30;0.30;;;;;;;10.27;100.00;98388.84;5064253;28;20017;-61
2023/08/09 02:52:16;;;;;;;0.30;0.30;;;;;;;10.32;100.00;98392.09;5064892;28;20025;-60
2023/08/09 02:54:41;;;;;;;0.82;0.82;;;;;;;10.31;100.00;98400.78;5064974;28;20041;-61
2023/08/09 02:57:06;;;;;;;0.30;0.30;;;;;;;10.32;100.00;98394.69;5065176;28;20024;-60
2023/08/09 02:59:32;;;;;;;0.30;0.30;;;;;;;10.35;100.00;98402.34;5064749;28;20048;-61
2023/08/09 03:01:58;;;;;;;0.30;0.30;;;;;;;10.38;100.00;98396.22;5064737;28;20063;-61
2023/08/09 03:04:23;;;;;;;0.30;0.30;;;;;;;10.44;100.00;98402.88;5064584;28;20088;-60
2023/08/09 03:06:49;;;;;;;0.30;0.30;;;;;;;10.46;100.00;98412.34;5065045;28;20028;-61
2023/08/09 03:09:15;;;;;;;0.30;0.30;;;;;;;10.47;100.00;98410.56;5064452;28;20070;-61
2023/08/09 03:11:40;;;;;;;0.30;0.30;;;;;;;10.44;100.00;98405.47;5067005;28;20474;-60
2023/08/09 03:14:05;;;;;;;0.30;0.30;;;;;;;10.47;100.00;98405.38;5068750;28;20096;-61
2023/08/09 03:16:31;;;;;;;0.30;0.30;;;;;;;10.53;100.00;98416.38;5068666;28;20048;-61
2023/08/09 03:18:56;;;;;;;0.30;0.30;;;;;;;10.54;100.00;98410.25;5068201;28;20032;-61
2023/08/09 03:21:22;;;;;;;0.30;0.30;;;;;;;10.58;100.00;98413.59;5068618;28;20075;-61
2023/08/09 03:23:47;;;;;;;0.30;0.30;;;;;;;10.59;100.00;98420.44;5068612;28;20064;-62
2023/08/09 03:26:13;;;;;;;0.30;0.30;;;;;;;10.60;100.00;98427.34;5068410;28;20361;-61
2023/08/09 03:28:42;;;;;;;0.30;0.30;;;;;;;10.61;100.00;98426.44;5068426;28;20020;-62
2023/08/09 03:31:08;;;;;;;0.30;0.30;;;;;;;10.62;100.00;98428.13;5068242;28;20021;-61
2023/08/09 03:33:34;;;;;;;0.30;0.30;;;;;;;10.62;100.00;98435.91;5068121;28;20021;-61
2023/08/09 03:35:59;;;;;;;0.30;0.30;;;;;;;10.63;100.00;98435.00;5067228;28;20035;-61
2023/08/09 03:38:25;;;;;;;0.30;0.30;;;;;;;10.65;100.00;98435.78;5067985;28;20064;-61
2023/08/09 03:40:50;;;;;;;0.30;0.30;;;;;;;10.66;100.00;98436.63;5068323;28;20108;-61
2023/08/09 03:43:16;;;;;;;0.30;0.30;;;;;;;10.57;100.00;98424.03;5068071;28;20021;-61
2023/08/09 03:45:41;;;;;;;0.30;0.30;;;;;;;10.63;100.00;98432.41;5068009;28;20048;-61
2023/08/09 03:48:06;;;;;;;0.30;0.30;;;;;;;10.68;100.00;98437.41;5067871;28;20024;-61
2023/08/09 03:50:32;;;;;;;0.30;0.30;;;;;;;10.71;100.00;98444.22;5067887;28;20032;-61
2023/08/09 03:52:58;;;;;;;0.30;0.30;;;;;;;10.71;100.00;98450.25;5068074;28;20353;-61
2023/08/09 03:55:23;;;;;;;0.20;0.20;;;;;;;10.72;100.00;98456.31;5067964;28;20151;-61
2023/08/09 03:57:48;;;;;;;0.20;0.20;;;;;;;10.65;100.00;98440.97;5066576;28;20029;-61
2023/08/09 04:00:17;;;;;;;0.30;0.30;;;;;;;10.68;100.00;98444.34;5067635;28;20029;-61
2023/08/09 04:02:45;;;;;;;0.30;0.30;;;;;;;10.71;100.00;98449.41;5067475;28;20052;-61
2023/08/09 04:05:10;;;;;;;0.30;0.30;;;;;;;10.76;100.00;98455.28;5067499;28;20025;-60
2023/08/09 04:07:37;;;;;;;0.30;0.30;;;;;;;10.76;100.00;98457.88;5067647;28;20059;-61
2023/08/09 04:10:05;;;;;;;0.30;0.30;;;;;;;10.82;100.00;98470.59;5067543;28;20020;-60
2023/08/09 04:12:30;;;;;;;0.30;0.30;;;;;;;10.84;100.00;98468.78;5067898;28;20021;-60
2023/08/09 04:14:56;;;;;;;0.30;0.30;;;;;;;10.83;100.00;98468.84;5067741;28;20029;-60
2023/08/09 04:17:21;;;;;;;0.30;0.30;;;;;;;10.80;100.00;98466.38;5067795;28;20021;-60
2023/08/09 04:19:46;;;;;;;0.30;0.30;;;;;;;10.81;100.00;98466.31;5067442;28;20477;-60
2023/08/09 04:22:12;;;;;;;0.30;0.30;;;;;;;10.79;100.00;98468.13;5067281;28;20017;-60
2023/08/09 04:24:37;;;;;;;0.30;0.30;;;;;;;10.83;100.00;98474.03;5066330;28;20028;-61
2023/08/09 04:27:03;;;;;;;0.22;0.22;;;;;;;10.85;100.00;98478.25;5067555;28;20047;-61
2023/08/09 04:29:28;;;;;;;0.30;0.30;;;;;;;10.89;100.00;98473.78;5067842;28;20078;-60
2023/08/09 04:31:54;;;;;;;0.30;0.30;;;;;;;10.87;100.00;98480.78;5067299;28;20076;-61
2023/08/09 04:34:19;;;;;;;0.30;0.30;;;;;;;10.87;100.00;98481.63;5067139;28;20025;-60
2023/08/09 04:36:45;;;;;;;0.30;0.30;;;;;;;10.88;100.00;98485.06;5066139;28;20078;-60
2023/08/09 04:39:11;;;;;;;0.30;0.30;;;;;;;10.92;100.00;98494.44;5067339;28;20118;-60
2023/08/09 04:41:36;;;;;;;0.30;0.30;;;;;;;10.95;100.00;98488.25;5067388;28;20470;-60
2023/08/09 04:44:02;;;;;;;0.20;0.20;;;;;;;10.95;100.00;98498.63;5067335;28;20025;-60
2023/08/09 04:46:27;;;;;;;0.93;0.93;;;;;;;11.03;100.00;98509.56;5067279;28;20029;-60
2023/08/09 04:48:53;;;;;;;0.30;0.30;;;;;;;11.06;100.00;98511.19;5067029;28;20472;-61
2023/08/09 04:51:18;;;;;;;0.20;0.20;;;;;;;11.06;100.00;98517.22;5066949;28;20429;-60
2023/08/09 04:53:44;;;;;;;0.30;0.30;;;;;;;11.03;100.00;98519.94;5067059;28;20017;-58
2023/08/09 04:56:10;;;;;;;0.30;0.30;;;;;;;11.01;100.00;98514.81;5067109;28;20020;-59
2023/08/09 04:58:36;;;;;;;0.30;0.30;;;;;;;11.00;100.00;98528.72;5067148;28;20075;-60
2023/08/09 05:01:01;;;;;;;0.30;0.30;;;;;;;10.99;100.00;98526.19;5067076;28;20384;-60
2023/08/09 05:03:27;;;;;;;0.30;0.30;;;;;;;10.99;100.00;98521.81;5066626;28;20481;-60
2023/08/09 05:05:52;;;;;;;0.22;0.22;;;;;;;11.00;100.00;98533.06;5067089;28;20485;-60
2023/08/09 05:08:18;;;;;;;0.30;0.30;;;;;;;10.96;100.00;98526.31;5067082;28;20021;-61
2023/08/09 05:10:43;;;;;;;0.30;0.30;;;;;;;11.07;100.00;98536.25;5066754;28;20407;-61
2023/08/09 05:13:08;;;;;;;0.30;0.30;;;;;;;11.07;100.00;98544.88;5066966;28;20020;-60
2023/08/09 05:15:34;;;;;;;0.20;0.20;;;;;;;11.12;100.00;98548.13;5066608;28;20047;-60
2023/08/09 05:17:59;;;;;;;0.30;0.30;;;;;;;11.08;100.00;98543.13;5066693;28;20039;-59
2023/08/09 05:20:25;;;;;;;0.30;0.30;;;;;;;11.12;100.00;98550.75;5066200;28;20037;-60
2023/08/09 05:22:51;;;;;;;0.30;0.30;;;;;;;11.13;100.00;98555.00;5066691;28;20025;-59
2023/08/09 05:25:17;;;;;;;0.30;0.30;;;;;;;11.17;100.00;98555.75;5066446;28;20024;-59
2023/08/09 05:27:47;;;;;;;0.20;0.20;;;;;;;11.18;100.00;98565.25;5066379;28;20028;-60
2023/08/09 05:30:13;;;;;;;0.20;0.20;;;;;;;11.18;100.00;98564.38;5066514;28;20024;-60
2023/08/09 05:32:38;;;;;;;0.30;0.30;;;;;;;11.19;100.00;98558.28;5066417;28;20025;-60
2023/08/09 05:35:04;;;;;;;0.30;0.30;;;;;;;11.18;100.00;98564.38;5065221;28;20029;-60
2023/08/09 05:37:30;;;;;;;0.30;0.30;;;;;;;11.22;100.00;98572.00;5066169;28;20048;-60
2023/08/09 05:39:55;;;;;;;0.20;0.20;;;;;;;11.22;100.00;98579.78;5065024;28;20377;-60
2023/08/09 05:42:21;;;;;;;0.30;0.30;;;;;;;11.25;100.00;98581.41;5066092;28;20466;-60
2023/08/09 05:44:47;;;;;;;0.30;0.30;;;;;;;11.25;100.00;98584.00;5065975;28;20452;-60
2023/08/09 05:47:12;;;;;;;0.30;0.30;;;;;;;11.20;100.00;98581.59;5066331;28;20021;-60
2023/08/09 05:49:38;;;;;;;0.30;0.30;;;;;;;11.15;100.00;98584.38;5065806;28;20424;-61
2023/08/09 05:52:03;;;;;;;0.20;0.20;;;;;;;11.12;100.00;98584.50;5066046;28;20025;-60
2023/08/09 05:54:29;;;;;;;0.30;0.30;;;;;;;11.05;100.00;98585.66;5066235;28;20020;-60
2023/08/09 05:56:55;;;;;;;0.28;0.28;;;;;;;11.10;100.00;98596.69;5066081;28;20056;-60
2023/08/09 05:59:20;;;;;;;0.20;0.20;;;;;;;11.13;100.00;98595.75;5065975;28;20029;-59
2023/08/09 06:01:45;;;;;;;0.30;0.30;;;;;;;11.12;100.00;98607.88;5065918;28;20534;-60
2023/08/09 06:04:11;;;;;;;0.28;0.28;;;;;;;11.13;100.00;98604.34;5065782;28;20092;-60
2023/08/09 06:06:36;;;;;;;0.30;0.30;;;;;;;11.16;100.00;98606.00;5066037;28;20025;-60
2023/08/09 06:09:05;;;;;;;0.20;0.20;;;;;;;11.21;100.00;98606.69;5065829;28;20017;-60
2023/08/09 06:11:30;;;;;;;0.30;0.30;;;;;;;11.24;100.00;98603.09;5065733;28;20020;-59
2023/08/09 06:13:57;;;;;;;0.30;0.30;;;;;;;11.31;100.00;98614.09;5065955;28;20082;-60
2023/08/09 06:16:22;;;;;;;0.30;0.30;;;;;;;11.31;100.00;98614.91;5065878;28;20473;-60
2023/08/09 06:18:48;;;;;;;0.30;0.30;;;;;;;11.31;100.00;98620.13;5065385;28;20040;-60
2023/08/09 06:21:13;;;;;;;0.20;0.20;;;;;;;11.28;100.00;98633.22;5065611;28;20017;-61
2023/08/09 06:23:39;;;;;;;0.30;0.30;;;;;;;11.25;100.00;98631.59;5065874;28;20025;-60
2023/08/09 06:26:04;;;;;;;0.30;0.30;;;;;;;11.22;100.00;98625.69;5065639;28;20047;-60
2023/08/09 06:28:30;;;;;;;0.30;0.30;;;;;;;11.19;100.00;98642.25;5065625;28;20017;-60
2023/08/09 06:30:55;;;;;;;0.30;0.30;;;;;;;11.20;100.00;98641.31;5065607;28;20032;-60
2023/08/09 06:33:21;;;;;;;0.30;0.30;;;;;;;11.23;100.00;98653.38;5065392;28;20025;-61
2023/08/09 06:35:46;;;;;;;0.30;0.30;;;;;;;11.21;100.00;98653.44;5065602;28;20025;-61
2023/08/09 06:38:11;;;;;;;0.20;0.20;;;;;;;11.17;100.00;98646.66;5065339;28;20052;-60
2023/08/09 06:40:39;;;;;;;0.30;0.30;;;;;;;11.17;100.00;98651.00;5065399;28;20104;-59
2023/08/09 06:43:04;;;;;;;0.20;0.20;;;;;;;11.16;100.00;98665.75;5065593;28;20047;-60
2023/08/09 06:45:30;;;;;;;0.30;0.30;;;;;;;11.14;100.00;98675.34;5067267;28;20020;-61
2023/08/09 06:47:56;;;;;;;0.30;0.30;;;;;;;11.15;100.00;98670.06;5072274;28;20036;-61
2023/08/09 06:50:23;;;;;;;0.20;0.20;;;;;;;11.20;100.00;98677.69;5070460;28;20493;-60
2023/08/09 06:52:49;;;;;;;0.30;0.30;;;;;;;11.26;100.00;98666.22;5072157;28;20021;-60
2023/08/09 06:55:14;;;;;;;0.30;0.30;;;;;;;11.32;100.00;98675.53;5071982;28;20104;-60
2023/08/09 06:57:39;;;;;;;0.20;0.20;;;;;;;11.26;100.00;98668.84;5072139;28;20029;-60
2023/08/09 07:00:15;;;;;;;0.30;0.30;;;;;;;11.28;100.00;98688.63;5071950;28;20078;-60
2023/08/09 07:02:40;;;;;;;0.30;0.30;;;;;;;11.20;100.00;98687.25;5072061;28;20029;-61
2023/08/09 07:05:09;;;;;;;0.30;0.30;;;;;;;11.17;100.00;98700.38;5071714;28;20083;-60
2023/08/09 07:07:34;;;;;;;0.30;0.30;;;;;;;11.15;100.00;98698.66;5072006;28;20051;-59
2023/08/09 07:10:00;;;;;;;0.25;0.25;;;;;;;11.22;100.00;98706.19;5071808;28;20509;-59
2023/08/09 07:12:25;;;;;;;0.30;0.30;;;;;;;11.22;100.00;98711.41;5071953;28;20021;-60
2023/08/09 07:14:51;;;;;;;0.30;0.30;;;;;;;11.31;100.00;98718.00;5071876;28;20108;-61
2023/08/09 07:17:17;;;;;;;0.30;0.30;;;;;;;11.38;100.00;98722.91;5072062;28;20025;-60
2023/08/09 07:19:42;;;;;;;0.20;0.20;;;;;;;11.41;100.00;98714.13;5071456;28;20036;-60
2023/08/09 07:22:08;;;;;;;0.30;0.30;;;;;;;11.39;100.00;98723.72;5071736;28;20021;-60
2023/08/09 07:24:33;;;;;;;0.30;0.30;;;;;;;11.40;100.00;98735.84;5071804;28;20025;-61
2023/08/09 07:26:59;;;;;;;0.20;0.20;;;;;;;11.38;100.00;98733.28;5071917;28;20025;-59
2023/08/09 07:29:24;;;;;;;0.30;0.30;;;;;;;11.44;100.00;98741.75;5071685;28;20080;-59
2023/08/09 07:31:49;;;;;;;0.30;0.30;;;;;;;11.50;100.00;98744.13;5071810;28;20020;-59
2023/08/09 07:34:15;;;;;;;0.30;0.30;;;;;;;11.48;100.00;98751.97;5071504;28;20032;-60
2023/08/09 07:36:40;;;;;;;0.30;0.30;;;;;;;11.42;100.00;98746.16;5071700;28;20021;-59
2023/08/09 07:39:09;;;;;;;0.20;0.20;;;;;;;11.46;100.00;98756.38;5071488;28;20072;-60
2023/08/09 07:41:34;;;;;;;0.30;0.30;;;;;;;11.48;100.00;98761.50;5071457;28;20028;-60
2023/08/09 07:44:00;;;;;;;0.20;0.20;;;;;;;11.46;100.00;98761.56;5071502;28;20021;-60
2023/08/09 07:46:26;;;;;;;0.30;0.30;;;;;;;11.51;100.00;98761.41;5071728;28;20056;-61
2023/08/09 07:48:53;;;;;;;0.30;0.30;;;;;;;11.57;100.00;98776.75;5071376;28;20029;-61
2023/08/09 07:51:18;;;;;;;0.30;0.30;;;;;;;11.59;100.00;98769.75;5071521;28;20021;-60
2023/08/09 07:53:45;;;;;;;0.20;0.20;;;;;;;11.59;100.00;98780.16;5071320;28;20017;-59
2023/08/09 07:56:11;;;;;;;0.30;0.30;;;;;;;11.49;100.00;98774.44;5070564;28;20512;-60
2023/08/09 07:58:36;;;;;;;0.30;0.30;;;;;;;11.50;100.00;98775.31;5068038;28;20086;-60
2023/08/09 08:01:04;;;;;;;0.30;0.30;;;;;;;11.59;100.00;98793.13;5068238;28;20024;-60
2023/08/09 08:03:30;;;;;;;0.30;0.30;;;;;;;11.57;100.00;98807.09;5067977;28;20136;-58
2023/08/09 08:05:55;;;;;;;0.30;0.30;;;;;;;11.52;100.00;98804.66;5068386;28;20029;-60
2023/08/09 08:08:21;;;;;;;0.30;0.30;;;;;;;11.51;100.00;98808.19;5068266;28;20095;-61
2023/08/09 08:10:47;;;;;;;0.30;0.30;;;;;;;11.46;100.00;98812.69;5068062;28;20497;-59
2023/08/09 08:13:14;;;;;;;0.30;0.30;;;;;;;11.52;100.00;98820.25;5068285;28;20385;-59
2023/08/09 08:15:39;;;;;;;0.30;0.30;;;;;;;11.50;100.00;98814.28;5066648;28;20024;-61
2023/08/09 08:18:06;;;;;;;0.30;0.30;;;;;;;11.53;100.00;98833.19;5067948;28;20050;-59
2023/08/09 08:20:32;;;;;;;0.20;0.20;;;;;;;11.57;100.00;98830.47;5067800;28;20048;-61
2023/08/09 08:22:58;;;;;;;0.30;0.30;;;;;;;11.61;100.00;98835.50;5067983;28;20029;-61
2023/08/09 08:25:25;;;;;;;0.30;0.30;;;;;;;11.63;100.00;98833.69;5067811;28;20032;-61
2023/08/09 08:27:50;;;;;;;0.20;0.20;;;;;;;11.66;100.00;98843.16;5067832;28;20043;-61
2023/08/09 08:30:18;;;;;;;0.22;0.22;;;;;;;11.68;100.00;98835.28;5067537;28;20042;-60
2023/08/09 08:32:48;;;;;;;0.30;0.30;;;;;;;11.58;100.00;98835.63;5067969;28;20021;-60
2023/08/09 08:35:18;;;;;;;0.30;0.30;;;;;;;11.55;100.00;98840.09;5067520;28;20088;-60
2023/08/09 08:37:44;;;;;;;0.20;0.20;;;;;;;11.58;100.00;98843.41;5067397;28;20053;-59
2023/08/09 08:40:21;;;;;;;0.30;0.30;;;;;;;11.56;100.00;98844.38;5067391;28;20131;-59
2023/08/09 08:42:49;;;;;;;0.22;0.22;;;;;;;11.51;100.00;98854.94;5067501;28;20044;-60
2023/08/09 08:45:15;;;;;;;0.20;0.20;;;;;;;11.50;100.00;98855.88;5067443;28;20039;-61
2023/08/09 08:47:43;;;;;;;0.30;0.30;;;;;;;11.52;100.00;98867.03;5067511;28;20021;-60
2023/08/09 08:50:10;;;;;;;0.30;0.30;;;;;;;11.47;100.00;98868.97;5067068;28;20028;-60
2023/08/09 08:52:42;;;;;;;0.30;0.30;;;;;;;11.47;100.00;98866.38;5067316;28;20043;-60
2023/08/09 08:55:09;;;;;;;0.30;0.30;;;;;;;11.45;100.00;98870.78;5067327;28;20059;-59
2023/08/09 08:57:37;;;;;;;0.30;0.30;;;;;;;11.46;100.00;98873.31;5067303;28;20029;-61
2023/08/09 09:00:08;;;;;;;0.30;0.30;;;;;;;11.47;100.00;98880.19;5067082;28;20021;-61
2023/08/09 09:02:37;;;;;;;0.30;0.30;;;;;;;11.50;100.00;98881.84;5067252;28;20025;-61
2023/08/09 09:05:03;;;;;;;0.30;0.30;;;;;;;11.55;100.00;98881.69;5066915;28;20060;-60
2023/08/09 09:07:29;;;;;;;0.30;0.30;;;;;;;11.54;100.00;98883.44;5067020;28;20021;-61
2023/08/09 09:10:03;;;;;;;0.20;0.20;;;;;;;11.56;100.00;98897.22;5065728;28;20076;-61
2023/08/09 09:12:29;;;;;;;0.20;0.20;;;;;;;11.54;100.00;98899.03;5067084;28;20121;-60
2023/08/09 09:14:55;;;;;;;0.30;0.30;;;;;;;11.52;100.00;98888.69;5066871;28;20032;-59
2023/08/09 09:17:21;;;;;;;0.30;0.30;;;;;;;11.56;100.00;98896.38;5066930;28;20557;-59
2023/08/09 09:19:47;;;;;;;0.30;0.30;;;;;;;11.58;100.00;98903.19;5066454;28;20059;-60
2023/08/09 09:22:27;;;;;;;0.20;0.20;;;;;;;11.59;100.00;98901.44;5066756;28;20036;-60
2023/08/09 09:24:58;;;;;;;0.30;0.30;;;;;;;11.57;100.00;98900.66;5066631;28;20041;-60
2023/08/09 09:27:32;;;;;;;0.32;0.32;;;;;;;11.56;100.00;98912.81;5066794;28;20074;-59
2023/08/09 09:30:12;;;;;;;0.30;0.30;;;;;;;11.61;100.00;98918.66;5066312;28;20044;-60
2023/08/09 09:32:52;;;;;;;0.20;0.20;;;;;;;11.68;100.00;98921.06;5066732;28;20021;-61
2023/08/09 09:35:21;;;;;;;0.28;0.28;;;;;;;11.71;100.00;98932.19;5066267;28;20029;-61
2023/08/09 09:37:48;;;;;;;0.30;0.30;;;;;;;11.73;100.00;98926.94;5066157;28;20044;-60
2023/08/09 09:40:24;;;;;;;0.30;0.30;;;;;;;11.70;100.00;98927.91;5066390;28;20040;-61
2023/08/09 09:42:55;;;;;;;0.20;0.20;;;;;;;11.78;100.00;98933.66;5066231;28;20021;-60
2023/08/09 09:45:26;;;;;;;0.30;0.30;;;;;;;11.77;100.00;98944.13;5066342;28;20249;-61
2023/08/09 09:47:57;;;;;;;0.40;0.40;;;;;;;11.76;100.00;98943.28;5066335;28;20028;-61
2023/08/09 09:50:28;;;;;;;0.20;0.20;;;;;;;11.67;100.00;98933.22;5065955;28;20470;-60
2023/08/09 09:52:54;;;;;;;0.30;0.30;;;;;;;11.74;100.00;98949.44;5066263;28;20060;-62
2023/08/09 09:55:25;;;;;;;0.30;0.30;;;;;;;11.78;100.00;98946.66;5065876;28;20021;-61
2023/08/09 09:57:52;;;;;;;0.30;0.30;;;;;;;11.73;100.00;98945.97;5066081;28;20025;-60
2023/08/09 10:00:22;;;;;;;0.30;0.30;;;;;;;11.79;100.00;98957.91;5065835;28;20021;-59
2023/08/09 10:02:52;;;;;;;0.20;0.20;;;;;;;11.80;100.00;98953.56;5064863;28;20021;-61
2023/08/09 10:05:21;;;;;;;0.30;0.30;;;;;;;11.84;100.00;98948.19;5065540;28;20025;-59
2023/08/09 10:07:48;;;;;;;0.20;0.20;;;;;;;11.84;100.00;98966.38;5065960;28;20060;-60
2023/08/09 10:10:16;;;;;;;0.30;0.30;;;;;;;11.83;100.00;98959.50;5065727;28;20020;-62
2023/08/09 10:12:47;;;;;;;0.20;0.20;;;;;;;11.85;100.00;98968.06;5065929;28;20021;-59
2023/08/09 10:15:15;;;;;;;0.30;0.30;;;;;;;11.91;100.00;98977.41;5065772;28;20021;-61
2023/08/09 10:17:43;;;;;;;0.20;0.20;;;;;;;11.94;100.00;98977.31;5065788;28;20028;-60
2023/08/09 10:20:11;;;;;;;0.30;0.30;;;;;;;11.99;100.00;98975.38;5064863;28;20021;-61
2023/08/09 10:22:38;;;;;;;0.30;0.30;;;;;;;12.02;100.00;98990.88;5065561;28;20032;-60
2023/08/09 10:25:04;;;;;;;0.20;0.20;;;;;;;12.06;100.00;98994.19;5065492;28;20105;-60
2023/08/09 10:27:45;;;;;;;0.30;0.30;;;;;;;12.10;100.00;98988.00;5064080;28;20021;-61
2023/08/09 10:30:13;;;;;;;0.20;0.20;;;;;;;12.11;100.00;99002.69;5065461;28;20044;-61
2023/08/09 10:32:53;;;;;;;0.30;0.30;;;;;;;12.12;100.00;98996.59;5065605;28;20021;-61
2023/08/09 10:35:20;;;;;;;0.20;0.20;;;;;;;12.21;100.00;99005.81;5065310;28;20021;-61
2023/08/09 10:37:47;;;;;;;0.30;0.30;;;;;;;12.31;100.00;99011.53;5065454;28;20072;-62
2023/08/09 10:40:18;;;;;;;0.30;0.30;;;;;;;12.32;100.00;99010.59;5065340;28;20084;-62
2023/08/09 10:42:47;;;;;;;0.40;0.40;;;;;;;12.36;100.00;99013.94;5065633;28;20033;-62
2023/08/09 10:45:13;;;;;;;0.30;0.30;;;;;;;12.39;100.00;99014.69;5065398;28;20028;-61
2023/08/09 10:47:40;;;;;;;0.20;0.20;;;;;;;12.43;100.00;99024.97;5065505;28;20040;-61
2023/08/09 10:50:07;;;;;;;0.20;0.20;;;;;;;12.49;100.00;99027.34;5064842;28;20053;-61
2023/08/09 10:52:33;;;;;;;0.20;0.20;;;;;;;12.53;100.00;99034.09;5065444;28;20024;-61
2023/08/09 10:55:18;;;;;;;0.22;0.22;;;;;;;12.52;100.00;99032.44;5065298;28;20028;-61
2023/08/09 10:57:45;;;;;;;0.20;0.20;;;;;;;12.55;100.00;99039.25;5065415;28;20351;-62
2023/08/09 11:00:14;;;;;;;0.20;0.20;;;;;;;12.57;100.00;99029.63;5065245;28;20037;-61
2023/08/09 11:02:56;;;;;;;0.30;0.30;;;;;;;12.69;100.00;99039.56;5065252;28;20357;-60
2023/08/09 11:05:23;;;;;;;0.30;0.30;;;;;;;12.86;100.00;99041.50;5065122;28;20021;-60
2023/08/09 11:07:54;;;;;;;0.20;0.20;;;;;;;12.99;100.00;99038.41;5065442;28;20032;-61
2023/08/09 11:10:34;;;;;;;0.30;0.30;;;;;;;13.08;100.00;99051.03;5065006;28;20025;-61
2023/08/09 11:13:11;;;;;;;0.30;0.30;;;;;;;13.18;100.00;99063.72;5065141;28;20051;-61
2023/08/09 11:15:37;;;;;;;0.20;0.20;;;;;;;13.24;100.00;99064.28;5064870;28;20433;-61
2023/08/09 11:18:02;;;;;;;0.20;0.20;;;;;;;13.36;100.00;99064.69;5063116;28;20059;-61
2023/08/09 11:20:29;;;;;;;11.90;5.10;;;;;;;13.40;100.00;99061.06;5064421;28;20025;-61
2023/08/09 11:22:56;;;;;;;0.30;0.30;;;;;;;13.44;100.00;99072.19;5065149;28;20021;-61